Time;durP1;ratioP1;P1;durP2;ratioP2;P2;SDS_P1;SDS_P2;PMS_P1;PMS_P2;Temp;Humidity;BMP_temperature;BMP_pressure;BME280_temperature;BME280_humidity;BME280_pressure;Samples;Min_cycle;Max_cycle;Signal;HPM_P1;HPM_P2
2022/03/25 00:01:56;;;;;;;55.20;36.50;;;5.60;77.40;;;;;;5060287;28;20240;-91
2022/03/25 00:04:21;;;;;;;62.03;35.73;;;5.50;78.10;;;;;;5058911;28;20215;-90
2022/03/25 00:06:47;;;;;;;63.97;37.93;;;5.50;78.60;;;;;;5058722;28;20180;-90
2022/03/25 00:09:12;;;;;;;61.77;39.50;;;5.60;78.00;;;;;;5060615;28;20176;-90
2022/03/25 00:11:38;;;;;;;63.93;39.13;;;5.60;78.70;;;;;;5059617;28;20176;-90
2022/03/25 00:14:04;;;;;;;66.60;41.83;;;5.50;79.40;;;;;;5059177;28;20242;-90
2022/03/25 00:16:29;;;;;;;57.73;37.67;;;5.60;78.80;;;;;;5058749;28;20187;-90
2022/03/25 00:18:55;;;;;;;61.50;40.17;;;5.60;78.50;;;;;;5059362;28;20240;-90
2022/03/25 00:21:21;;;;;;;66.67;43.13;;;5.70;77.80;;;;;;5058762;28;20193;-90
2022/03/25 00:23:47;;;;;;;71.33;43.70;;;5.70;78.60;;;;;;5058581;28;20215;-90
2022/03/25 00:26:12;;;;;;;68.47;40.43;;;5.70;79.50;;;;;;5058626;28;20179;-90
2022/03/25 00:28:38;;;;;;;58.33;39.23;;;5.70;80.70;;;;;;5058555;28;20184;-90
2022/03/25 00:31:07;;;;;;;67.13;42.57;;;5.70;80.70;;;;;;5058362;28;20181;-91
2022/03/25 00:33:33;;;;;;;66.27;40.90;;;5.60;80.90;;;;;;5058289;28;20199;-91
2022/03/25 00:36:00;;;;;;;65.23;41.07;;;5.60;80.60;;;;;;5056210;28;20197;-91
2022/03/25 00:38:27;;;;;;;64.40;42.63;;;5.50;80.70;;;;;;5058782;28;20216;-90
2022/03/25 00:40:53;;;;;;;62.23;40.63;;;5.40;81.40;;;;;;5058366;28;20187;-90
2022/03/25 00:43:20;;;;;;;64.37;40.70;;;5.40;82.00;;;;;;5057883;28;20578;-90
2022/03/25 00:45:46;;;;;;;62.83;40.07;;;5.30;81.90;;;;;;5057876;28;20175;-90
2022/03/25 00:48:15;;;;;;;64.60;43.57;;;5.30;82.00;;;;;;5059023;28;20506;-90
2022/03/25 00:50:41;;;;;;;72.63;43.20;;;5.30;81.90;;;;;;5059387;28;20256;-90
2022/03/25 00:53:08;;;;;;;74.57;43.50;;;5.40;81.40;;;;;;5058705;28;20210;-90
2022/03/25 00:55:34;;;;;;;71.07;42.13;;;5.50;80.80;;;;;;5057385;28;20562;-90
2022/03/25 00:58:00;;;;;;;57.80;39.47;;;5.50;80.20;;;;;;5057776;28;20225;-91
2022/03/25 01:00:26;;;;;;;70.40;44.17;;;5.40;79.90;;;;;;5057621;28;20182;-90
2022/03/25 01:02:52;;;;;;;67.50;43.73;;;5.40;79.60;;;;;;5057665;28;20203;-90
2022/03/25 01:05:18;;;;;;;73.33;46.17;;;5.40;79.30;;;;;;5057687;28;20268;-90
2022/03/25 01:07:44;;;;;;;80.43;46.50;;;5.30;80.40;;;;;;5058018;28;20219;-90
2022/03/25 01:10:10;;;;;;;81.30;47.20;;;5.30;80.90;;;;;;5057734;28;20179;-90
2022/03/25 01:12:36;;;;;;;77.67;44.20;;;5.30;81.70;;;;;;5056806;28;20195;-90
2022/03/25 01:15:02;;;;;;;67.33;43.70;;;5.30;81.90;;;;;;5056693;28;20564;-91
2022/03/25 01:17:28;;;;;;;71.33;43.73;;;5.30;81.40;;;;;;5056461;28;20213;-91
2022/03/25 01:19:54;;;;;;;64.30;41.57;;;5.30;81.40;;;;;;5056364;28;20536;-91
2022/03/25 01:22:19;;;;;;;63.43;40.70;;;5.20;82.00;;;;;;5056554;28;20196;-92
2022/03/25 01:24:45;;;;;;;66.27;42.93;;;5.20;82.20;;;;;;5056606;28;20665;-92
2022/03/25 01:27:10;;;;;;;65.37;40.37;;;5.10;81.90;;;;;;5056092;28;20182;-92
2022/03/25 01:29:36;;;;;;;73.63;42.50;;;5.00;81.60;;;;;;5056758;28;20189;-92
2022/03/25 01:32:03;;;;;;;76.40;45.57;;;5.00;82.30;;;;;;5056836;28;20178;-92
2022/03/25 01:34:29;;;;;;;73.23;43.07;;;5.00;82.30;;;;;;5057948;28;20573;-90
2022/03/25 01:36:55;;;;;;;69.50;44.87;;;4.90;83.00;;;;;;5057775;28;20268;-89
2022/03/25 01:39:20;;;;;;;71.60;43.70;;;4.90;83.80;;;;;;5057510;28;20214;-90
2022/03/25 01:41:52;;;;;;;72.47;42.07;;;5.00;83.80;;;;;;5057169;28;20187;-89
2022/03/25 01:44:26;;;;;;;65.53;43.27;;;5.00;83.40;;;;;;5056904;28;20313;-89
2022/03/25 01:46:53;;;;;;;67.80;42.07;;;5.00;82.90;;;;;;5057301;28;20179;-89
2022/03/25 01:49:20;;;;;;;68.23;44.30;;;5.00;82.50;;;;;;5056866;28;20220;-89
2022/03/25 01:51:52;;;;;;;70.43;43.17;;;5.00;82.00;;;;;;5056876;28;20183;-89
2022/03/25 01:54:20;;;;;;;79.43;47.63;;;5.00;81.50;;;;;;5056965;28;20224;-90
2022/03/25 01:56:53;;;;;;;78.33;48.30;;;5.00;81.20;;;;;;5056826;28;20271;-90
2022/03/25 01:59:19;;;;;;;70.00;43.43;;;5.00;82.10;;;;;;5057144;28;20269;-91
2022/03/25 02:01:44;;;;;;;76.50;45.93;;;5.00;81.90;;;;;;5056858;28;20208;-91
2022/03/25 02:04:10;;;;;;;83.50;47.17;;;4.90;81.40;;;;;;5057781;28;20608;-90
2022/03/25 02:06:35;;;;;;;76.13;47.43;;;5.00;81.10;;;;;;5056433;28;20182;-90
2022/03/25 02:09:01;;;;;;;78.17;49.43;;;5.00;80.90;;;;;;5056864;28;20260;-90
2022/03/25 02:11:28;;;;;;;80.63;47.87;;;5.00;80.80;;;;;;5056572;28;20228;-91
2022/03/25 02:13:53;;;;;;;71.83;44.70;;;4.90;81.50;;;;;;5056347;28;20202;-90
2022/03/25 02:16:19;;;;;;;73.53;44.27;;;4.90;82.00;;;;;;5057664;28;20245;-90
2022/03/25 02:18:45;;;;;;;68.40;43.47;;;4.80;81.80;;;;;;5056393;28;20182;-91
2022/03/25 02:21:12;;;;;;;74.83;44.20;;;4.80;81.60;;;;;;5056676;28;20207;-89
2022/03/25 02:23:38;;;;;;;72.47;45.83;;;4.80;81.30;;;;;;5056390;28;20216;-90
2022/03/25 02:26:05;;;;;;;77.67;46.20;;;4.80;81.00;;;;;;5056712;28;20178;-90
2022/03/25 02:28:31;;;;;;;71.90;45.77;;;4.80;80.90;;;;;;5056587;28;20180;-89
2022/03/25 02:30:56;;;;;;;72.40;44.70;;;4.80;80.80;;;;;;5056856;28;20240;-91
2022/03/25 02:33:22;;;;;;;84.90;49.90;;;4.80;80.60;;;;;;5056432;28;20200;-88
2022/03/25 02:35:50;;;;;;;74.70;46.63;;;4.70;81.60;;;;;;5057277;28;20176;-90
2022/03/25 02:38:18;;;;;;;70.17;41.03;;;4.70;82.90;;;;;;5057662;28;20206;-91
2022/03/25 02:40:44;;;;;;;68.23;41.50;;;4.70;83.20;;;;;;5055759;28;20168;-91
2022/03/25 02:43:11;;;;;;;66.93;39.60;;;4.70;83.00;;;;;;5056195;28;20222;-90
2022/03/25 02:45:37;;;;;;;56.60;39.33;;;4.60;82.80;;;;;;5055686;28;20172;-91
2022/03/25 02:48:04;;;;;;;58.47;37.50;;;4.50;83.10;;;;;;5056330;28;20593;-91
2022/03/25 02:50:30;;;;;;;139.13;38.57;;;4.50;83.20;;;;;;5056385;28;20197;-90
2022/03/25 02:52:57;;;;;;;77.50;34.80;;;4.40;83.60;;;;;;5056473;28;20213;-90
2022/03/25 02:55:24;;;;;;;153.40;32.60;;;4.30;84.10;;;;;;5057262;28;20161;-91
2022/03/25 02:57:49;;;;;;;121.93;32.20;;;4.30;84.10;;;;;;5055585;28;20271;-90
2022/03/25 03:00:15;;;;;;;87.33;32.23;;;4.30;84.10;;;;;;5056294;28;20199;-90
2022/03/25 03:02:41;;;;;;;40.63;30.77;;;4.30;84.10;;;;;;5056332;28;20582;-90
2022/03/25 03:05:07;;;;;;;40.77;30.30;;;4.30;83.60;;;;;;5056008;28;20196;-90
2022/03/25 03:07:37;;;;;;;53.57;29.67;;;4.30;83.20;;;;;;5056489;28;20223;-90
2022/03/25 03:10:07;;;;;;;38.67;29.27;;;4.30;82.80;;;;;;5056085;28;20204;-90
2022/03/25 03:12:33;;;;;;;31.67;24.50;;;4.30;82.50;;;;;;5056591;28;20289;-90
2022/03/25 03:15:00;;;;;;;36.40;25.50;;;4.20;82.50;;;;;;5057581;28;20607;-90
2022/03/25 03:17:26;;;;;;;144.00;28.70;;;4.20;82.30;;;;;;5056872;28;20181;-90
2022/03/25 03:19:52;;;;;;;243.27;31.87;;;4.20;82.80;;;;;;5056036;28;20177;-90
2022/03/25 03:22:18;;;;;;;264.37;28.87;;;4.20;83.30;;;;;;5057441;28;20223;-90
2022/03/25 03:24:44;;;;;;;217.00;23.43;;;4.10;83.60;;;;;;5055879;28;20292;-90
2022/03/25 03:27:10;;;;;;;23.10;17.30;;;4.10;83.80;;;;;;5055387;28;20176;-90
2022/03/25 03:29:36;;;;;;;20.50;16.27;;;4.10;84.10;;;;;;5055528;28;20176;-90
2022/03/25 03:32:03;;;;;;;45.73;16.63;;;4.10;83.70;;;;;;5054965;28;20528;-89
2022/03/25 03:34:28;;;;;;;32.00;18.00;;;4.10;83.30;;;;;;5055051;28;20196;-89
2022/03/25 03:36:54;;;;;;;22.87;17.53;;;4.10;83.60;;;;;;5055795;28;20186;-91
2022/03/25 03:39:20;;;;;;;41.03;27.27;;;4.10;83.30;;;;;;5055801;28;20662;-91
2022/03/25 03:41:45;;;;;;;36.50;25.57;;;4.00;82.80;;;;;;5056389;28;20262;-91
2022/03/25 03:44:11;;;;;;;45.10;25.93;;;3.80;82.20;;;;;;5055446;28;20211;-91
2022/03/25 03:46:36;;;;;;;31.67;22.70;;;3.70;82.00;;;;;;5055815;28;20180;-89
2022/03/25 03:49:02;;;;;;;30.60;22.27;;;3.60;82.00;;;;;;5055855;28;20176;-90
2022/03/25 03:51:28;;;;;;;40.77;25.73;;;3.60;82.00;;;;;;5055588;28;20212;-90
2022/03/25 03:53:54;;;;;;;47.50;31.23;;;3.60;81.70;;;;;;5056048;28;20699;-91
2022/03/25 03:56:20;;;;;;;30.70;21.97;;;3.50;81.40;;;;;;5056043;28;20210;-92
2022/03/25 03:58:45;;;;;;;29.60;21.47;;;3.40;81.50;;;;;;5055571;28;20264;-92
2022/03/25 04:01:11;;;;;;;31.87;23.13;;;3.50;81.40;;;;;;5055430;28;20302;-90
2022/03/25 04:03:37;;;;;;;32.43;22.73;;;3.40;81.20;;;;;;5054956;28;20208;-88
2022/03/25 04:06:03;;;;;;;31.70;21.40;;;3.40;81.10;;;;;;5055610;28;20187;-92
2022/03/25 04:08:29;;;;;;;35.13;24.50;;;3.40;80.80;;;;;;5055394;28;20179;-91
2022/03/25 04:10:55;;;;;;;41.30;25.17;;;3.30;80.60;;;;;;5058320;28;20196;-91
2022/03/25 04:13:20;;;;;;;37.83;25.80;;;3.40;80.50;;;;;;5058587;28;20257;-91
2022/03/25 04:15:46;;;;;;;37.37;25.63;;;3.30;80.40;;;;;;5060178;28;20226;-90
2022/03/25 04:18:11;;;;;;;39.20;26.97;;;3.20;80.50;;;;;;5058871;28;20521;-90
2022/03/25 04:20:37;;;;;;;36.70;26.07;;;3.20;80.50;;;;;;5059122;28;20203;-90
2022/03/25 04:23:02;;;;;;;28.17;19.00;;;3.20;80.50;;;;;;5060236;28;20196;-90
2022/03/25 04:25:28;;;;;;;32.67;20.97;;;3.10;80.50;;;;;;5059063;28;20253;-90
2022/03/25 04:27:56;;;;;;;29.97;22.77;;;3.00;80.40;;;;;;5059174;28;20174;-89
2022/03/25 04:30:24;;;;;;;33.97;21.13;;;3.00;80.40;;;;;;5059829;28;20172;-90
2022/03/25 04:32:50;;;;;;;26.37;20.27;;;3.00;80.40;;;;;;5059333;28;20266;-90
2022/03/25 04:35:16;;;;;;;28.53;19.77;;;3.00;80.30;;;;;;5058451;28;20187;-90
2022/03/25 04:37:42;;;;;;;26.83;19.23;;;3.00;80.20;;;;;;5059445;28;20180;-90
2022/03/25 04:40:10;;;;;;;24.83;18.67;;;3.00;80.00;;;;;;5058838;28;20180;-91
2022/03/25 04:42:35;;;;;;;38.57;24.90;;;2.90;80.00;;;;;;5058329;28;20210;-91
2022/03/25 04:45:01;;;;;;;35.57;24.33;;;2.90;80.10;;;;;;5058397;28;20208;-89
2022/03/25 04:47:26;;;;;;;38.70;26.97;;;3.00;80.10;;;;;;5059369;28;20321;-89
2022/03/25 04:49:52;;;;;;;52.60;30.57;;;3.00;80.10;;;;;;5060056;28;20216;-89
2022/03/25 04:52:17;;;;;;;50.27;31.87;;;3.00;80.20;;;;;;5057487;28;20171;-90
2022/03/25 04:54:43;;;;;;;188.53;38.57;;;3.00;80.80;;;;;;5078294;22;20238;-86
2022/03/25 04:57:09;;;;;;;128.73;38.77;;;3.00;81.20;;;;;;5053695;28;20595;-86
2022/03/25 04:59:34;;;;;;;112.13;37.70;;;2.90;82.30;;;;;;5055299;28;20709;-86
2022/03/25 05:02:00;;;;;;;247.37;25.93;;;2.90;82.70;;;;;;5053510;28;20258;-86
2022/03/25 05:04:26;;;;;;;126.43;19.47;;;2.80;82.90;;;;;;5054844;28;20199;-87
2022/03/25 05:06:51;;;;;;;33.90;19.23;;;2.60;83.90;;;;;;5054768;28;20168;-87
2022/03/25 05:09:17;;;;;;;256.00;25.67;;;2.70;84.40;;;;;;5053547;28;20676;-86
2022/03/25 05:11:43;;;;;;;133.87;21.77;;;2.60;84.30;;;;;;5054841;28;20162;-86
2022/03/25 05:14:10;;;;;;;192.77;19.47;;;2.50;84.30;;;;;;5054512;28;20191;-87
2022/03/25 05:16:36;;;;;;;19.43;14.73;;;2.50;84.80;;;;;;5053509;28;20174;-87
2022/03/25 05:19:02;;;;;;;24.10;18.70;;;2.60;85.30;;;;;;5053418;28;20179;-86
2022/03/25 05:21:27;;;;;;;30.37;20.67;;;2.60;85.30;;;;;;5054229;28;20180;-86
2022/03/25 05:23:53;;;;;;;91.90;20.17;;;2.70;85.00;;;;;;5052970;28;20302;-87
2022/03/25 05:26:20;;;;;;;23.10;18.50;;;2.80;84.60;;;;;;5053094;28;20173;-87
2022/03/25 05:28:46;;;;;;;26.10;19.00;;;2.80;84.40;;;;;;5053051;28;20194;-87
2022/03/25 05:31:12;;;;;;;44.47;27.10;;;2.80;84.10;;;;;;5053017;28;20644;-86
2022/03/25 05:33:38;;;;;;;47.93;31.43;;;2.80;83.90;;;;;;5053095;28;20198;-86
2022/03/25 05:36:04;;;;;;;41.57;29.33;;;2.60;83.80;;;;;;5054199;28;20173;-86
2022/03/25 05:38:30;;;;;;;37.43;26.43;;;2.50;84.00;;;;;;5054469;28;20230;-87
2022/03/25 05:40:56;;;;;;;43.33;26.50;;;2.60;84.00;;;;;;5054292;28;20164;-86
2022/03/25 05:43:22;;;;;;;39.90;25.07;;;2.60;83.80;;;;;;5053961;28;20271;-86
2022/03/25 05:45:48;;;;;;;41.87;23.43;;;2.60;83.70;;;;;;5052748;28;20676;-86
2022/03/25 05:48:13;;;;;;;26.87;19.13;;;2.60;83.40;;;;;;5052816;28;20227;-87
2022/03/25 05:50:39;;;;;;;41.70;21.33;;;2.50;83.50;;;;;;5052647;28;20177;-88
2022/03/25 05:53:05;;;;;;;32.80;19.73;;;2.50;83.90;;;;;;5052551;28;20247;-86
2022/03/25 05:55:32;;;;;;;30.40;20.33;;;2.50;84.00;;;;;;5052600;28;20166;-86
2022/03/25 05:57:57;;;;;;;31.47;21.30;;;2.60;83.80;;;;;;5053951;28;20174;-86
2022/03/25 06:00:23;;;;;;;34.13;21.07;;;2.60;83.60;;;;;;5053865;28;20226;-86
2022/03/25 06:02:49;;;;;;;28.30;18.83;;;2.60;83.70;;;;;;5053622;28;20176;-85
2022/03/25 06:05:15;;;;;;;37.07;23.93;;;2.60;83.70;;;;;;5052384;28;20687;-86
2022/03/25 06:07:43;;;;;;;32.07;21.07;;;2.60;84.10;;;;;;5052360;28;20186;-88
2022/03/25 06:10:10;;;;;;;33.23;21.50;;;2.70;84.40;;;;;;5053634;28;20172;-86
2022/03/25 06:12:37;;;;;;;33.13;20.47;;;2.60;84.60;;;;;;5052292;28;20258;-88
2022/03/25 06:15:04;;;;;;;32.43;21.07;;;2.60;85.10;;;;;;5052141;28;20203;-86
2022/03/25 06:17:30;;;;;;;26.70;19.80;;;2.40;85.40;;;;;;5052127;28;20189;-86
2022/03/25 06:19:56;;;;;;;29.47;20.80;;;2.40;85.70;;;;;;5052466;28;20781;-86
2022/03/25 06:22:24;;;;;;;24.50;19.73;;;2.40;85.90;;;;;;5053621;28;20190;-86
2022/03/25 06:24:51;;;;;;;26.90;21.90;;;2.30;86.30;;;;;;5053351;28;20211;-87
2022/03/25 06:27:16;;;;;;;26.73;22.70;;;2.30;86.60;;;;;;5052135;28;20174;-87
2022/03/25 06:29:42;;;;;;;30.47;25.20;;;2.30;87.00;;;;;;5052073;28;20178;-86
2022/03/25 06:32:10;;;;;;;29.63;24.40;;;2.30;87.30;;;;;;5051445;28;20187;-86
2022/03/25 06:34:36;;;;;;;32.93;25.77;;;2.40;87.60;;;;;;5051937;28;20266;-86
2022/03/25 06:37:02;;;;;;;33.37;25.87;;;2.50;87.70;;;;;;5053105;28;20174;-88
2022/03/25 06:39:29;;;;;;;33.83;25.63;;;2.70;87.80;;;;;;5051945;28;20258;-89
2022/03/25 06:41:54;;;;;;;35.13;27.93;;;2.80;87.90;;;;;;5051818;28;20182;-86
2022/03/25 06:44:20;;;;;;;34.90;27.50;;;2.90;88.00;;;;;;5053279;28;20202;-89
2022/03/25 06:46:45;;;;;;;37.13;29.77;;;3.00;88.10;;;;;;5052009;28;20186;-88
2022/03/25 06:49:11;;;;;;;37.33;29.60;;;3.20;88.10;;;;;;5053286;28;20167;-86
2022/03/25 06:51:37;;;;;;;35.67;28.53;;;3.30;88.20;;;;;;5051604;28;20233;-87
2022/03/25 06:54:03;;;;;;;41.47;29.93;;;3.30;88.20;;;;;;5051627;28;20222;-88
2022/03/25 06:56:29;;;;;;;36.87;28.73;;;3.50;88.30;;;;;;5052925;28;20175;-88
2022/03/25 06:58:56;;;;;;;39.00;29.37;;;3.60;88.20;;;;;;5051598;28;20671;-88
2022/03/25 07:01:21;;;;;;;46.57;32.13;;;3.60;88.10;;;;;;5051657;28;20258;-88
2022/03/25 07:03:47;;;;;;;47.30;34.50;;;3.80;88.30;;;;;;5051536;28;20303;-88
2022/03/25 07:06:15;;;;;;;47.33;34.80;;;4.10;88.60;;;;;;5051936;28;20175;-88
2022/03/25 07:08:43;;;;;;;78.67;46.57;;;4.20;88.70;;;;;;5051609;28;20308;-88
2022/03/25 07:11:08;;;;;;;94.77;56.67;;;4.20;88.60;;;;;;5051602;28;20174;-89
2022/03/25 07:13:34;;;;;;;118.87;66.83;;;4.30;88.60;;;;;;5051400;28;20187;-88
2022/03/25 07:16:00;;;;;;;126.00;65.87;;;4.80;89.30;;;;;;5051487;28;20174;-88
2022/03/25 07:18:25;;;;;;;126.27;68.73;;;4.90;89.70;;;;;;5052753;28;20171;-89
2022/03/25 07:20:51;;;;;;;114.90;68.57;;;5.10;89.90;;;;;;5051431;28;20768;-88
2022/03/25 07:23:17;;;;;;;142.80;74.97;;;5.10;89.90;;;;;;5051326;28;20192;-89
2022/03/25 07:25:42;;;;;;;136.10;74.80;;;5.10;90.00;;;;;;5051446;28;20190;-89
2022/03/25 07:28:08;;;;;;;165.40;87.17;;;5.20;90.00;;;;;;5051407;28;20191;-89
2022/03/25 07:30:34;;;;;;;167.90;90.00;;;5.30;90.20;;;;;;5051475;28;20176;-89
2022/03/25 07:33:00;;;;;;;186.83;95.73;;;5.50;90.20;;;;;;5052565;28;20168;-89
2022/03/25 07:35:25;;;;;;;181.37;96.83;;;5.60;90.20;;;;;;5051323;28;20638;-89
2022/03/25 07:37:51;;;;;;;179.40;92.73;;;5.70;90.20;;;;;;5051260;28;20178;-89
2022/03/25 07:40:17;;;;;;;172.23;90.50;;;5.80;90.10;;;;;;5051323;28;20183;-89
2022/03/25 07:42:44;;;;;;;169.20;93.30;;;5.90;90.20;;;;;;5052652;28;20577;-88
2022/03/25 07:45:13;;;;;;;168.30;90.43;;;5.90;90.00;;;;;;5054418;28;20705;-89
2022/03/25 07:47:44;;;;;;;172.87;92.67;;;6.20;90.00;;;;;;5055178;28;20202;-89
2022/03/25 07:50:11;;;;;;;177.80;94.57;;;6.30;89.90;;;;;;5055092;28;20183;-89
2022/03/25 07:52:37;;;;;;;184.93;98.00;;;6.40;89.80;;;;;;5054926;28;20186;-89
2022/03/25 07:55:03;;;;;;;193.40;104.03;;;6.50;89.80;;;;;;5054820;28;20218;-89
2022/03/25 07:57:29;;;;;;;187.70;103.43;;;6.70;89.70;;;;;;5054822;28;20185;-89
2022/03/25 07:59:54;;;;;;;187.00;105.67;;;6.70;89.40;;;;;;5055032;28;20554;-89
2022/03/25 08:02:20;;;;;;;183.40;106.63;;;6.80;89.20;;;;;;5056084;28;20193;-88
2022/03/25 08:04:46;;;;;;;174.83;99.47;;;7.00;89.00;;;;;;5054631;28;20206;-89
2022/03/25 08:07:12;;;;;;;169.93;101.37;;;7.00;88.70;;;;;;5054770;28;20179;-89
2022/03/25 08:09:38;;;;;;;161.07;92.53;;;7.10;88.30;;;;;;5054777;28;20189;-89
2022/03/25 08:12:05;;;;;;;161.73;92.97;;;7.20;87.90;;;;;;5056193;28;20164;-89
2022/03/25 08:14:30;;;;;;;155.20;92.73;;;7.30;87.10;;;;;;5054817;28;20196;-90
2022/03/25 08:16:56;;;;;;;147.63;90.67;;;7.40;86.40;;;;;;5056077;28;20233;-89
2022/03/25 08:19:21;;;;;;;133.83;85.80;;;7.50;85.90;;;;;;5054363;28;20603;-89
2022/03/25 08:21:47;;;;;;;143.23;85.53;;;7.60;85.70;;;;;;5054776;28;20523;-89
2022/03/25 08:29:41;;;;;;;124.03;80.67;;;8.00;85.30;;;;;;5055882;28;20159;-90
2022/03/25 08:32:07;;;;;;;122.00;75.80;;;8.00;84.40;;;;;;5054404;28;20171;-90
2022/03/25 08:34:32;;;;;;;122.63;77.27;;;8.30;84.10;;;;;;5055389;28;20196;-89
2022/03/25 08:36:58;;;;;;;121.40;75.17;;;8.30;83.10;;;;;;5055090;28;20183;-89
2022/03/25 08:39:23;;;;;;;114.40;71.87;;;8.30;83.00;;;;;;5054440;28;20563;-90
2022/03/25 08:41:49;;;;;;;109.43;71.43;;;8.50;82.80;;;;;;5054130;28;20212;-90
2022/03/25 08:44:15;;;;;;;106.73;67.57;;;8.50;82.10;;;;;;5054042;28;20568;-90
2022/03/25 08:46:41;;;;;;;101.40;62.93;;;8.70;82.20;;;;;;5055282;28;20177;-88
2022/03/25 08:49:06;;;;;;;94.97;63.63;;;8.70;81.60;;;;;;5054074;28;20257;-90
2022/03/25 08:51:32;;;;;;;94.43;60.17;;;8.90;80.40;;;;;;5053935;28;20633;-89
2022/03/25 08:53:58;;;;;;;109.97;63.20;;;9.00;79.70;;;;;;5055210;28;20215;-90
2022/03/25 08:56:25;;;;;;;89.13;59.53;;;9.20;79.90;;;;;;5053183;28;20179;-87
2022/03/25 08:58:54;;;;;;;84.83;53.80;;;9.40;79.60;;;;;;5053939;28;20570;-89
2022/03/25 09:01:20;;;;;;;76.77;49.50;;;9.60;80.10;;;;;;5053836;28;20172;-89
2022/03/25 09:03:46;;;;;;;83.87;52.07;;;9.60;78.00;;;;;;5054993;28;20208;-91
2022/03/25 09:06:12;;;;;;;77.80;47.40;;;9.90;75.70;;;;;;5055458;28;20171;-90
2022/03/25 09:08:38;;;;;;;73.83;47.43;;;10.10;76.30;;;;;;5055291;28;20180;-91
2022/03/25 09:11:03;;;;;;;86.73;51.87;;;10.20;74.30;;;;;;5056059;28;20176;-89
2022/03/25 09:13:29;;;;;;;82.27;56.10;;;10.30;75.50;;;;;;5055009;28;20219;-89
2022/03/25 09:15:55;;;;;;;86.27;54.33;;;10.30;75.30;;;;;;5053554;28;20179;-90
2022/03/25 09:18:21;;;;;;;78.20;52.30;;;10.50;76.40;;;;;;5054922;28;20164;-89
2022/03/25 09:20:47;;;;;;;72.10;51.40;;;10.70;76.10;;;;;;5054932;28;20172;-88
2022/03/25 09:23:13;;;;;;;72.63;49.27;;;10.80;74.60;;;;;;5054715;28;20569;-90
2022/03/25 09:25:39;;;;;;;68.97;46.07;;;11.00;75.70;;;;;;5054846;28;20218;-87
2022/03/25 09:28:05;;;;;;;63.23;44.60;;;11.00;72.20;;;;;;5053378;28;20638;-91
2022/03/25 09:30:31;;;;;;;78.43;45.93;;;11.30;73.30;;;;;;5053325;28;20556;-91
2022/03/25 09:32:57;;;;;;;60.50;41.07;;;11.50;72.30;;;;;;5054487;28;20168;-91
2022/03/25 09:35:23;;;;;;;63.67;40.80;;;11.60;71.40;;;;;;5054772;28;20626;-90
2022/03/25 09:37:50;;;;;;;69.90;43.73;;;11.90;71.50;;;;;;5053206;28;20179;-90
2022/03/25 09:40:18;;;;;;;63.13;37.97;;;12.20;70.60;;;;;;5053904;28;20321;-90
2022/03/25 09:42:45;;;;;;;56.30;38.37;;;12.20;68.40;;;;;;5054263;28;20175;-91
2022/03/25 09:45:15;;;;;;;63.47;33.97;;;12.30;69.00;;;;;;5053097;28;20203;-90
2022/03/25 09:47:41;;;;;;;53.27;35.40;;;12.70;67.60;;;;;;5053002;28;20171;-90
2022/03/25 09:50:12;;;;;;;54.00;37.03;;;12.80;66.20;;;;;;5053345;28;20168;-90
2022/03/25 09:52:38;;;;;;;58.57;35.93;;;12.80;63.90;;;;;;5054025;28;20164;-90
2022/03/25 09:55:05;;;;;;;56.37;37.07;;;12.80;64.90;;;;;;5052782;28;20306;-89
2022/03/25 09:57:31;;;;;;;58.80;37.20;;;13.10;65.60;;;;;;5053990;28;20175;-89
2022/03/25 09:59:57;;;;;;;59.40;37.10;;;13.10;62.50;;;;;;5052922;28;20184;-90
2022/03/25 10:02:24;;;;;;;61.07;36.17;;;13.20;63.90;;;;;;5053555;28;20207;-90
2022/03/25 10:04:50;;;;;;;53.43;35.67;;;13.50;64.10;;;;;;5052584;28;20574;-89
2022/03/25 10:07:22;;;;;;;51.33;31.40;;;13.60;61.80;;;;;;5051821;28;20176;-90
2022/03/25 10:10:08;;;;;;;45.73;28.63;;;13.70;61.70;;;;;;5052433;28;20175;-90
2022/03/25 10:12:35;;;;;;;49.97;30.43;;;14.00;60.00;;;;;;5053581;28;20168;-90
2022/03/25 10:15:14;;;;;;;41.50;28.53;;;14.10;58.70;;;;;;5052480;28;20688;-90
2022/03/25 10:17:56;;;;;;;46.70;27.73;;;14.20;56.50;;;;;;5053591;28;20164;-90
2022/03/25 10:20:30;;;;;;;42.60;26.90;;;14.20;55.30;;;;;;5052643;28;20557;-91
2022/03/25 10:23:13;;;;;;;42.73;27.50;;;14.30;53.80;;;;;;5052181;28;20172;-90
2022/03/25 10:25:42;;;;;;;42.07;26.10;;;14.40;53.00;;;;;;5052257;28;20196;-90
2022/03/25 10:28:27;;;;;;;60.30;27.83;;;14.60;54.60;;;;;;5052176;28;20262;-91
2022/03/25 10:30:58;;;;;;;49.53;27.03;;;14.90;52.40;;;;;;5053382;28;20167;-90
2022/03/25 10:33:36;;;;;;;56.93;28.13;;;14.60;51.80;;;;;;5053195;28;20195;-91
2022/03/25 10:36:09;;;;;;;46.23;27.03;;;14.90;52.40;;;;;;5052639;28;20587;-90
2022/03/25 10:39:01;;;;;;;42.70;28.03;;;15.10;53.00;;;;;;5052255;28;20194;-89
2022/03/25 10:41:41;;;;;;;46.43;27.37;;;15.20;51.80;;;;;;5052801;28;20176;-91
2022/03/25 10:44:09;;;;;;;47.10;27.50;;;15.20;50.50;;;;;;5052894;28;20203;-92
2022/03/25 10:46:42;;;;;;;42.97;25.50;;;15.40;51.40;;;;;;5052576;28;20593;-91
2022/03/25 10:49:16;;;;;;;36.00;21.20;;;15.50;49.90;;;;;;5053603;28;20174;-90
2022/03/25 10:51:50;;;;;;;32.37;20.47;;;15.60;49.30;;;;;;5053098;28;20152;-90
2022/03/25 10:54:16;;;;;;;27.83;17.57;;;15.60;47.40;;;;;;5076719;22;20239;-91
2022/03/25 10:56:47;;;;;;;31.20;16.83;;;15.60;47.50;;;;;;5054045;28;20176;-89
2022/03/25 10:59:30;;;;;;;24.50;16.17;;;16.10;46.80;;;;;;5052966;28;20330;-90
2022/03/25 11:01:58;;;;;;;25.23;14.43;;;16.00;45.50;;;;;;5052663;28;20217;-89
2022/03/25 11:04:24;;;;;;;28.55;15.10;;;16.50;43.40;;;;;;5053914;28;20216;-90
2022/03/25 11:06:50;;;;;;;31.75;16.45;;;16.40;42.00;;;;;;5053242;28;20642;-88
2022/03/25 11:09:17;;;;;;;26.77;17.00;;;16.70;42.30;;;;;;5053951;28;20175;-88
2022/03/25 11:11:44;;;;;;;32.38;16.10;;;16.60;41.60;;;;;;5052984;28;20225;-88
2022/03/25 11:14:10;;;;;;;31.38;17.23;;;16.80;41.40;;;;;;5053085;28;20192;-88
2022/03/25 11:16:42;;;;;;;38.30;20.08;;;16.70;41.10;;;;;;5052741;28;20180;-88
2022/03/25 11:19:09;;;;;;;39.78;20.08;;;16.70;40.90;;;;;;5055694;28;20172;-87
2022/03/25 11:21:39;;;;;;;36.05;20.38;;;16.70;42.40;;;;;;5058318;28;20168;-88
2022/03/25 11:24:08;;;;;;;45.33;24.80;;;17.10;42.40;;;;;;5056701;28;20211;-88
2022/03/25 11:26:40;;;;;;;53.95;26.38;;;17.20;42.10;;;;;;5057200;28;20200;-88
2022/03/25 11:29:10;;;;;;;46.70;25.30;;;17.30;41.60;;;;;;5058155;28;20534;-88
2022/03/25 11:32:04;;;;;;;47.90;30.60;;;17.30;41.40;;;;;;5056586;28;20167;-88
2022/03/25 11:34:29;;;;;;;48.10;31.48;;;17.10;41.80;;;;;;5056652;28;20203;-88
2022/03/25 11:37:20;;;;;;;51.05;31.70;;;17.20;41.60;;;;;;5056825;28;20176;-88
2022/03/25 11:39:45;;;;;;;50.10;30.90;;;17.40;41.40;;;;;;5057749;28;20509;-88
2022/03/25 11:42:41;;;;;;;48.15;28.17;;;17.00;41.60;;;;;;5057685;28;20182;-88
2022/03/25 11:45:34;;;;;;;41.92;26.05;;;17.60;41.20;;;;;;5056427;28;20712;-88
2022/03/25 11:48:02;;;;;;;46.65;23.98;;;17.70;42.70;;;;;;5054023;28;20715;-87
2022/03/25 11:50:32;;;;;;;40.92;25.85;;;17.00;41.30;;;;;;5056644;28;20551;-88
2022/03/25 11:53:24;;;;;;;41.45;25.48;;;17.00;41.60;;;;;;5056278;28;20168;-89
2022/03/25 11:55:53;;;;;;;43.00;24.27;;;17.60;41.40;;;;;;5056007;28;20180;-88
2022/03/25 11:58:20;;;;;;;42.35;24.00;;;17.80;41.60;;;;;;5056062;28;20207;-88
2022/03/25 12:00:48;;;;;;;39.50;22.92;;;17.50;39.20;;;;;;5055820;28;20646;-88
2022/03/25 12:03:15;;;;;;;32.25;22.30;;;17.60;42.10;;;;;;5056985;28;20169;-88
2022/03/25 12:05:58;;;;;;;39.20;21.25;;;18.00;39.70;;;;;;5055348;28;20211;-87
2022/03/25 12:08:25;;;;;;;32.00;19.65;;;18.40;39.80;;;;;;5055548;28;20168;-88
2022/03/25 12:10:52;;;;;;;37.40;17.98;;;18.60;39.00;;;;;;5055399;28;20168;-88
2022/03/25 12:13:18;;;;;;;28.13;15.88;;;18.60;39.00;;;;;;5056552;28;20172;-87
2022/03/25 12:15:53;;;;;;;27.52;13.63;;;17.90;40.40;;;;;;5055472;28;20183;-87
2022/03/25 12:18:38;;;;;;;22.33;12.27;;;17.10;41.10;;;;;;5056300;28;20652;-88
2022/03/25 12:21:03;;;;;;;22.38;12.00;;;17.70;41.00;;;;;;5055560;28;20271;-88
2022/03/25 12:23:29;;;;;;;30.63;14.05;;;18.10;41.30;;;;;;5055119;28;20207;-88
2022/03/25 12:25:55;;;;;;;26.25;12.40;;;18.10;40.40;;;;;;5055128;28;20548;-92
2022/03/25 12:28:25;;;;;;;24.75;11.82;;;18.00;40.80;;;;;;5055497;28;20195;-89
2022/03/25 12:30:53;;;;;;;18.38;10.15;;;18.10;42.10;;;;;;5053981;28;20168;-88
2022/03/25 12:33:19;;;;;;;21.77;11.23;;;17.80;42.20;;;;;;5056113;28;20168;-88
2022/03/25 12:35:45;;;;;;;21.02;11.05;;;18.20;42.00;;;;;;5055512;28;20207;-88
2022/03/25 12:38:18;;;;;;;23.55;11.25;;;18.20;43.10;;;;;;5056155;28;20172;-90
2022/03/25 12:40:45;;;;;;;28.05;11.32;;;18.30;42.30;;;;;;5055905;28;20614;-88